sensor_id;sensor_type;location;lat;lon;timestamp;P1;durP1;ratioP1;P2;durP2;ratioP2
6442;SDS011;3254;47.372;8.512;2022-12-05T00:00:57;21.45;;;11.50;;
6442;SDS011;3254;47.372;8.512;2022-12-05T00:03:24;22.40;;;11.77;;
6442;SDS011;3254;47.372;8.512;2022-12-05T00:05:50;24.83;;;11.00;;
6442;SDS011;3254;47.372;8.512;2022-12-05T00:08:16;22.17;;;11.70;;
6442;SDS011;3254;47.372;8.512;2022-12-05T00:10:42;16.73;;;10.70;;
6442;SDS011;3254;47.372;8.512;2022-12-05T00:13:07;19.13;;;11.33;;
6442;SDS011;3254;47.372;8.512;2022-12-05T00:15:37;16.30;;;10.00;;
6442;SDS011;3254;47.372;8.512;2022-12-05T00:18:03;16.42;;;10.68;;
6442;SDS011;3254;47.372;8.512;2022-12-05T00:20:29;16.57;;;9.80;;
6442;SDS011;3254;47.372;8.512;2022-12-05T00:22:55;15.00;;;9.50;;
6442;SDS011;3254;47.372;8.512;2022-12-05T00:25:20;17.17;;;10.27;;
6442;SDS011;3254;47.372;8.512;2022-12-05T00:27:46;16.67;;;10.63;;
6442;SDS011;3254;47.372;8.512;2022-12-05T00:30:11;16.53;;;10.43;;
6442;SDS011;3254;47.372;8.512;2022-12-05T00:32:37;22.93;;;11.50;;
6442;SDS011;3254;47.372;8.512;2022-12-05T00:35:02;20.07;;;11.60;;
6442;SDS011;3254;47.372;8.512;2022-12-05T00:37:28;20.80;;;11.30;;
6442;SDS011;3254;47.372;8.512;2022-12-05T00:39:54;17.40;;;11.50;;
6442;SDS011;3254;47.372;8.512;2022-12-05T00:42:19;18.47;;;11.20;;
6442;SDS011;3254;47.372;8.512;2022-12-05T00:44:45;19.80;;;11.17;;
6442;SDS011;3254;47.372;8.512;2022-12-05T00:47:13;26.00;;;13.32;;
6442;SDS011;3254;47.372;8.512;2022-12-05T00:49:39;20.67;;;11.40;;
6442;SDS011;3254;47.372;8.512;2022-12-05T00:52:05;19.90;;;11.53;;
6442;SDS011;3254;47.372;8.512;2022-12-05T00:54:30;25.60;;;14.37;;
6442;SDS011;3254;47.372;8.512;2022-12-05T00:56:56;22.83;;;12.90;;
6442;SDS011;3254;47.372;8.512;2022-12-05T00:59:21;21.63;;;13.00;;
6442;SDS011;3254;47.372;8.512;2022-12-05T01:01:47;22.67;;;13.10;;
6442;SDS011;3254;47.372;8.512;2022-12-05T01:04:18;24.75;;;13.55;;
6442;SDS011;3254;47.372;8.512;2022-12-05T01:06:45;23.02;;;12.73;;
6442;SDS011;3254;47.372;8.512;2022-12-05T01:09:12;22.27;;;12.55;;
6442;SDS011;3254;47.372;8.512;2022-12-05T01:11:39;20.73;;;12.52;;
6442;SDS011;3254;47.372;8.512;2022-12-05T01:14:06;26.95;;;14.25;;
6442;SDS011;3254;47.372;8.512;2022-12-05T01:16:32;25.83;;;13.47;;
6442;SDS011;3254;47.372;8.512;2022-12-05T01:19:00;22.33;;;12.68;;
6442;SDS011;3254;47.372;8.512;2022-12-05T01:21:28;22.42;;;13.48;;
6442;SDS011;3254;47.372;8.512;2022-12-05T01:23:54;21.90;;;12.97;;
6442;SDS011;3254;47.372;8.512;2022-12-05T01:26:20;24.40;;;13.10;;
6442;SDS011;3254;47.372;8.512;2022-12-05T01:28:47;23.42;;;13.32;;
6442;SDS011;3254;47.372;8.512;2022-12-05T01:31:26;22.48;;;13.23;;
6442;SDS011;3254;47.372;8.512;2022-12-05T01:33:54;20.60;;;12.02;;
6442;SDS011;3254;47.372;8.512;2022-12-05T01:36:21;21.50;;;13.30;;
6442;SDS011;3254;47.372;8.512;2022-12-05T01:38:48;22.50;;;12.32;;
6442;SDS011;3254;47.372;8.512;2022-12-05T01:41:19;23.40;;;12.70;;
6442;SDS011;3254;47.372;8.512;2022-12-05T01:46:21;26.25;;;13.57;;
6442;SDS011;3254;47.372;8.512;2022-12-05T01:48:47;24.13;;;13.23;;
6442;SDS011;3254;47.372;8.512;2022-12-05T01:51:14;21.00;;;12.68;;
6442;SDS011;3254;47.372;8.512;2022-12-05T01:53:40;25.50;;;13.93;;
6442;SDS011;3254;47.372;8.512;2022-12-05T01:56:05;19.30;;;12.63;;
6442;SDS011;3254;47.372;8.512;2022-12-05T01:58:33;22.60;;;12.05;;
6442;SDS011;3254;47.372;8.512;2022-12-05T02:01:01;20.33;;;12.88;;
6442;SDS011;3254;47.372;8.512;2022-12-05T02:03:27;17.80;;;11.77;;
6442;SDS011;3254;47.372;8.512;2022-12-05T02:05:53;22.27;;;12.53;;
6442;SDS011;3254;47.372;8.512;2022-12-05T02:08:21;21.20;;;12.55;;
6442;SDS011;3254;47.372;8.512;2022-12-05T02:10:48;20.65;;;12.45;;
6442;SDS011;3254;47.372;8.512;2022-12-05T02:13:26;19.48;;;11.55;;
6442;SDS011;3254;47.372;8.512;2022-12-05T02:18:33;23.90;;;13.02;;
6442;SDS011;3254;47.372;8.512;2022-12-05T02:32:40;21.23;;;12.55;;
6442;SDS011;3254;47.372;8.512;2022-12-05T02:35:13;20.67;;;12.35;;
6442;SDS011;3254;47.372;8.512;2022-12-05T02:38:30;19.05;;;11.30;;
6442;SDS011;3254;47.372;8.512;2022-12-05T02:46:29;18.92;;;11.88;;
6442;SDS011;3254;47.372;8.512;2022-12-05T02:48:58;19.20;;;12.20;;
6442;SDS011;3254;47.372;8.512;2022-12-05T02:51:28;20.10;;;12.85;;
6442;SDS011;3254;47.372;8.512;2022-12-05T02:53:58;20.10;;;11.88;;
6442;SDS011;3254;47.372;8.512;2022-12-05T02:56:28;20.30;;;12.48;;
6442;SDS011;3254;47.372;8.512;2022-12-05T02:58:56;23.42;;;14.18;;
6442;SDS011;3254;47.372;8.512;2022-12-05T03:01:23;21.17;;;12.50;;
6442;SDS011;3254;47.372;8.512;2022-12-05T03:03:51;20.05;;;12.80;;
6442;SDS011;3254;47.372;8.512;2022-12-05T03:06:23;19.42;;;12.82;;
6442;SDS011;3254;47.372;8.512;2022-12-05T03:11:30;22.75;;;13.65;;
6442;SDS011;3254;47.372;8.512;2022-12-05T03:14:02;24.65;;;14.65;;
6442;SDS011;3254;47.372;8.512;2022-12-05T03:16:32;23.98;;;14.40;;
6442;SDS011;3254;47.372;8.512;2022-12-05T03:19:06;28.30;;;14.43;;
6442;SDS011;3254;47.372;8.512;2022-12-05T03:21:38;25.60;;;14.30;;
6442;SDS011;3254;47.372;8.512;2022-12-05T03:24:12;30.95;;;15.82;;
6442;SDS011;3254;47.372;8.512;2022-12-05T03:29:50;25.80;;;14.35;;
6442;SDS011;3254;47.372;8.512;2022-12-05T03:32:30;31.05;;;15.38;;
6442;SDS011;3254;47.372;8.512;2022-12-05T03:35:22;29.08;;;15.60;;
6442;SDS011;3254;47.372;8.512;2022-12-05T03:38:00;32.58;;;15.40;;
6442;SDS011;3254;47.372;8.512;2022-12-05T03:40:31;31.50;;;15.50;;
6442;SDS011;3254;47.372;8.512;2022-12-05T03:48:26;28.42;;;16.25;;
6442;SDS011;3254;47.372;8.512;2022-12-05T03:50:55;32.28;;;16.75;;
6442;SDS011;3254;47.372;8.512;2022-12-05T03:53:44;31.30;;;15.07;;
6442;SDS011;3254;47.372;8.512;2022-12-05T03:56:15;29.77;;;14.63;;
6442;SDS011;3254;47.372;8.512;2022-12-05T03:58:57;28.00;;;14.55;;
6442;SDS011;3254;47.372;8.512;2022-12-05T04:01:29;26.92;;;14.25;;
6442;SDS011;3254;47.372;8.512;2022-12-05T04:03:58;27.35;;;14.60;;
6442;SDS011;3254;47.372;8.512;2022-12-05T04:06:30;26.73;;;14.70;;
6442;SDS011;3254;47.372;8.512;2022-12-05T04:09:03;23.65;;;13.80;;
6442;SDS011;3254;47.372;8.512;2022-12-05T04:11:36;25.38;;;14.10;;
6442;SDS011;3254;47.372;8.512;2022-12-05T04:14:17;23.40;;;13.15;;
6442;SDS011;3254;47.372;8.512;2022-12-05T04:16:53;27.95;;;14.60;;
6442;SDS011;3254;47.372;8.512;2022-12-05T04:19:29;24.88;;;13.48;;
6442;SDS011;3254;47.372;8.512;2022-12-05T04:22:19;21.52;;;12.02;;
6442;SDS011;3254;47.372;8.512;2022-12-05T04:24:46;20.65;;;10.27;;
6442;SDS011;3254;47.372;8.512;2022-12-05T04:30:16;18.63;;;11.18;;
6442;SDS011;3254;47.372;8.512;2022-12-05T04:32:45;17.50;;;11.10;;
6442;SDS011;3254;47.372;8.512;2022-12-05T04:35:28;19.23;;;11.77;;
6442;SDS011;3254;47.372;8.512;2022-12-05T04:38:05;13.02;;;9.00;;
6442;SDS011;3254;47.372;8.512;2022-12-05T04:40:48;17.75;;;11.15;;
6442;SDS011;3254;47.372;8.512;2022-12-05T04:43:23;16.65;;;10.57;;
6442;SDS011;3254;47.372;8.512;2022-12-05T04:45:50;15.38;;;10.35;;
6442;SDS011;3254;47.372;8.512;2022-12-05T04:48:17;18.70;;;11.63;;
6442;SDS011;3254;47.372;8.512;2022-12-05T04:50:45;18.27;;;11.57;;
6442;SDS011;3254;47.372;8.512;2022-12-05T04:53:12;15.15;;;10.18;;
6442;SDS011;3254;47.372;8.512;2022-12-05T04:55:40;14.80;;;9.38;;
6442;SDS011;3254;47.372;8.512;2022-12-05T04:58:15;11.77;;;7.65;;
6442;SDS011;3254;47.372;8.512;2022-12-05T05:00:49;9.50;;;7.00;;
6442;SDS011;3254;47.372;8.512;2022-12-05T05:03:46;5.78;;;5.38;;
6442;SDS011;3254;47.372;8.512;2022-12-05T05:06:15;14.43;;;7.95;;
6442;SDS011;3254;47.372;8.512;2022-12-05T05:08:45;9.43;;;7.65;;
6442;SDS011;3254;47.372;8.512;2022-12-05T05:11:17;11.00;;;7.65;;
6442;SDS011;3254;47.372;8.512;2022-12-05T05:13:46;13.32;;;8.73;;
6442;SDS011;3254;47.372;8.512;2022-12-05T05:16:16;12.63;;;8.85;;
6442;SDS011;3254;47.372;8.512;2022-12-05T05:18:48;14.55;;;9.88;;
6442;SDS011;3254;47.372;8.512;2022-12-05T05:21:28;13.95;;;9.60;;
6442;SDS011;3254;47.372;8.512;2022-12-05T05:24:02;17.13;;;10.02;;
6442;SDS011;3254;47.372;8.512;2022-12-05T05:26:29;13.57;;;9.18;;
6442;SDS011;3254;47.372;8.512;2022-12-05T05:28:57;11.77;;;8.65;;
6442;SDS011;3254;47.372;8.512;2022-12-05T05:31:23;14.03;;;8.50;;
6442;SDS011;3254;47.372;8.512;2022-12-05T05:33:50;12.13;;;8.45;;
6442;SDS011;3254;47.372;8.512;2022-12-05T05:36:17;13.38;;;8.55;;
6442;SDS011;3254;47.372;8.512;2022-12-05T05:38:44;12.52;;;8.45;;
6442;SDS011;3254;47.372;8.512;2022-12-05T05:41:12;10.82;;;8.10;;
6442;SDS011;3254;47.372;8.512;2022-12-05T05:43:39;13.30;;;8.50;;
6442;SDS011;3254;47.372;8.512;2022-12-05T05:46:05;11.30;;;7.97;;
6442;SDS011;3254;47.372;8.512;2022-12-05T05:48:31;9.50;;;6.90;;
6442;SDS011;3254;47.372;8.512;2022-12-05T05:50:57;6.67;;;5.30;;
6442;SDS011;3254;47.372;8.512;2022-12-05T05:53:23;7.63;;;5.85;;
6442;SDS011;3254;47.372;8.512;2022-12-05T05:55:49;8.27;;;7.03;;
6442;SDS011;3254;47.372;8.512;2022-12-05T05:58:15;7.73;;;6.97;;
6442;SDS011;3254;47.372;8.512;2022-12-05T06:00:40;10.87;;;7.30;;
6442;SDS011;3254;47.372;8.512;2022-12-05T06:03:06;9.03;;;7.20;;
6442;SDS011;3254;47.372;8.512;2022-12-05T06:05:32;9.73;;;7.20;;
6442;SDS011;3254;47.372;8.512;2022-12-05T06:07:57;9.50;;;7.00;;
6442;SDS011;3254;47.372;8.512;2022-12-05T06:10:23;7.50;;;6.50;;
6442;SDS011;3254;47.372;8.512;2022-12-05T06:12:49;8.00;;;5.80;;
6442;SDS011;3254;47.372;8.512;2022-12-05T06:15:14;6.60;;;5.90;;
6442;SDS011;3254;47.372;8.512;2022-12-05T06:17:40;6.40;;;5.80;;
6442;SDS011;3254;47.372;8.512;2022-12-05T06:20:05;7.80;;;6.43;;
6442;SDS011;3254;47.372;8.512;2022-12-05T06:22:32;6.60;;;6.00;;
6442;SDS011;3254;47.372;8.512;2022-12-05T06:24:58;5.40;;;5.00;;
6442;SDS011;3254;47.372;8.512;2022-12-05T06:27:23;11.10;;;5.70;;
6442;SDS011;3254;47.372;8.512;2022-12-05T06:29:49;6.13;;;5.60;;
6442;SDS011;3254;47.372;8.512;2022-12-05T06:32:15;16.07;;;6.63;;
6442;SDS011;3254;47.372;8.512;2022-12-05T06:34:40;8.23;;;6.33;;
6442;SDS011;3254;47.372;8.512;2022-12-05T06:37:06;7.80;;;6.17;;
6442;SDS011;3254;47.372;8.512;2022-12-05T06:39:32;7.53;;;5.93;;
6442;SDS011;3254;47.372;8.512;2022-12-05T06:41:57;7.43;;;6.50;;
6442;SDS011;3254;47.372;8.512;2022-12-05T06:44:23;6.77;;;6.00;;
6442;SDS011;3254;47.372;8.512;2022-12-05T06:46:51;8.32;;;6.30;;
6442;SDS011;3254;47.372;8.512;2022-12-05T06:49:17;7.53;;;6.40;;
6442;SDS011;3254;47.372;8.512;2022-12-05T06:51:43;6.67;;;6.00;;
6442;SDS011;3254;47.372;8.512;2022-12-05T06:54:12;6.00;;;5.40;;
6442;SDS011;3254;47.372;8.512;2022-12-05T06:56:38;8.00;;;5.93;;
6442;SDS011;3254;47.372;8.512;2022-12-05T06:59:04;6.90;;;5.50;;
6442;SDS011;3254;47.372;8.512;2022-12-05T07:01:30;8.97;;;5.30;;
6442;SDS011;3254;47.372;8.512;2022-12-05T07:04:18;6.40;;;5.05;;
6442;SDS011;3254;47.372;8.512;2022-12-05T07:06:47;5.90;;;5.30;;
6442;SDS011;3254;47.372;8.512;2022-12-05T07:09:14;5.20;;;4.70;;
6442;SDS011;3254;47.372;8.512;2022-12-05T07:11:40;5.80;;;5.30;;
6442;SDS011;3254;47.372;8.512;2022-12-05T07:14:06;5.20;;;4.70;;
6442;SDS011;3254;47.372;8.512;2022-12-05T07:16:33;6.53;;;4.28;;
6442;SDS011;3254;47.372;8.512;2022-12-05T07:18:59;4.35;;;4.05;;
6442;SDS011;3254;47.372;8.512;2022-12-05T07:21:25;4.40;;;4.07;;
6442;SDS011;3254;47.372;8.512;2022-12-05T07:23:50;4.30;;;4.00;;
6442;SDS011;3254;47.372;8.512;2022-12-05T07:26:18;3.67;;;3.47;;
6442;SDS011;3254;47.372;8.512;2022-12-05T07:28:45;4.07;;;3.80;;
6442;SDS011;3254;47.372;8.512;2022-12-05T07:31:12;3.65;;;3.35;;
6442;SDS011;3254;47.372;8.512;2022-12-05T07:33:40;3.63;;;3.40;;
6442;SDS011;3254;47.372;8.512;2022-12-05T07:36:07;3.25;;;2.95;;
6442;SDS011;3254;47.372;8.512;2022-12-05T07:38:35;2.90;;;2.70;;
6442;SDS011;3254;47.372;8.512;2022-12-05T07:41:08;3.58;;;3.10;;
6442;SDS011;3254;47.372;8.512;2022-12-05T07:43:40;2.75;;;2.55;;
6442;SDS011;3254;47.372;8.512;2022-12-05T07:46:07;3.00;;;2.80;;
6442;SDS011;3254;47.372;8.512;2022-12-05T07:48:35;3.30;;;3.10;;
6442;SDS011;3254;47.372;8.512;2022-12-05T07:51:01;3.37;;;3.10;;
6442;SDS011;3254;47.372;8.512;2022-12-05T07:53:28;3.30;;;3.10;;
6442;SDS011;3254;47.372;8.512;2022-12-05T07:55:59;2.90;;;2.70;;
6442;SDS011;3254;47.372;8.512;2022-12-05T07:58:29;2.97;;;2.83;;
6442;SDS011;3254;47.372;8.512;2022-12-05T08:00:56;3.47;;;3.28;;
6442;SDS011;3254;47.372;8.512;2022-12-05T08:03:29;3.28;;;3.08;;
6442;SDS011;3254;47.372;8.512;2022-12-05T08:05:54;4.13;;;2.77;;
6442;SDS011;3254;47.372;8.512;2022-12-05T08:08:20;4.70;;;3.63;;
6442;SDS011;3254;47.372;8.512;2022-12-05T08:10:45;3.60;;;3.40;;
6442;SDS011;3254;47.372;8.512;2022-12-05T08:13:11;3.00;;;2.90;;
6442;SDS011;3254;47.372;8.512;2022-12-05T08:15:36;4.00;;;3.70;;
6442;SDS011;3254;47.372;8.512;2022-12-05T08:18:02;2.60;;;2.50;;
6442;SDS011;3254;47.372;8.512;2022-12-05T08:20:28;2.53;;;2.43;;
6442;SDS011;3254;47.372;8.512;2022-12-05T08:22:54;2.70;;;2.60;;
6442;SDS011;3254;47.372;8.512;2022-12-05T08:25:20;2.60;;;2.50;;
6442;SDS011;3254;47.372;8.512;2022-12-05T08:27:45;3.00;;;2.90;;
6442;SDS011;3254;47.372;8.512;2022-12-05T08:30:11;2.40;;;2.30;;
6442;SDS011;3254;47.372;8.512;2022-12-05T08:32:36;2.63;;;2.43;;
6442;SDS011;3254;47.372;8.512;2022-12-05T08:35:02;2.53;;;2.33;;
6442;SDS011;3254;47.372;8.512;2022-12-05T08:37:28;2.40;;;2.20;;
6442;SDS011;3254;47.372;8.512;2022-12-05T08:39:53;2.40;;;2.20;;
6442;SDS011;3254;47.372;8.512;2022-12-05T08:42:19;1.90;;;1.80;;
6442;SDS011;3254;47.372;8.512;2022-12-05T08:44:44;2.13;;;2.03;;
6442;SDS011;3254;47.372;8.512;2022-12-05T08:47:10;2.43;;;2.33;;
6442;SDS011;3254;47.372;8.512;2022-12-05T08:49:36;2.90;;;2.70;;
6442;SDS011;3254;47.372;8.512;2022-12-05T08:52:01;2.43;;;2.33;;
6442;SDS011;3254;47.372;8.512;2022-12-05T08:54:27;2.60;;;2.43;;
6442;SDS011;3254;47.372;8.512;2022-12-05T08:56:53;2.57;;;2.33;;
6442;SDS011;3254;47.372;8.512;2022-12-05T08:59:18;2.60;;;2.50;;
6442;SDS011;3254;47.372;8.512;2022-12-05T09:01:44;1.93;;;1.83;;
6442;SDS011;3254;47.372;8.512;2022-12-05T09:04:09;2.40;;;2.17;;
6442;SDS011;3254;47.372;8.512;2022-12-05T09:06:36;2.53;;;2.42;;
6442;SDS011;3254;47.372;8.512;2022-12-05T09:09:05;2.90;;;2.70;;
6442;SDS011;3254;47.372;8.512;2022-12-05T09:11:34;2.92;;;2.58;;
6442;SDS011;3254;47.372;8.512;2022-12-05T09:14:01;3.03;;;2.83;;
6442;SDS011;3254;47.372;8.512;2022-12-05T09:16:31;3.28;;;2.42;;
6442;SDS011;3254;47.372;8.512;2022-12-05T09:18:58;2.33;;;2.22;;
6442;SDS011;3254;47.372;8.512;2022-12-05T09:21:25;3.37;;;2.50;;
6442;SDS011;3254;47.372;8.512;2022-12-05T09:23:52;2.67;;;2.47;;
6442;SDS011;3254;47.372;8.512;2022-12-05T09:26:20;2.45;;;2.35;;
6442;SDS011;3254;47.372;8.512;2022-12-05T09:28:48;2.65;;;2.45;;
6442;SDS011;3254;47.372;8.512;2022-12-05T09:31:18;2.30;;;2.20;;
6442;SDS011;3254;47.372;8.512;2022-12-05T09:33:45;2.85;;;2.75;;
6442;SDS011;3254;47.372;8.512;2022-12-05T09:36:16;2.72;;;2.58;;
6442;SDS011;3254;47.372;8.512;2022-12-05T09:38:44;3.38;;;2.63;;
6442;SDS011;3254;47.372;8.512;2022-12-05T09:44:25;2.50;;;2.40;;
6442;SDS011;3254;47.372;8.512;2022-12-05T09:49:56;3.00;;;2.90;;
6442;SDS011;3254;47.372;8.512;2022-12-05T09:52:27;2.53;;;2.05;;
6442;SDS011;3254;47.372;8.512;2022-12-05T09:55:04;2.30;;;2.20;;
6442;SDS011;3254;47.372;8.512;2022-12-05T09:57:36;2.17;;;2.08;;
6442;SDS011;3254;47.372;8.512;2022-12-05T10:00:05;2.90;;;2.72;;
6442;SDS011;3254;47.372;8.512;2022-12-05T10:02:49;2.75;;;2.60;;
6442;SDS011;3254;47.372;8.512;2022-12-05T10:05:42;2.50;;;2.40;;
6442;SDS011;3254;47.372;8.512;2022-12-05T10:11:25;2.20;;;2.10;;
6442;SDS011;3254;47.372;8.512;2022-12-05T10:16:28;2.67;;;2.57;;
6442;SDS011;3254;47.372;8.512;2022-12-05T10:18:59;2.58;;;2.47;;
6442;SDS011;3254;47.372;8.512;2022-12-05T10:21:32;2.35;;;2.25;;
6442;SDS011;3254;47.372;8.512;2022-12-05T10:24:16;2.80;;;2.60;;
6442;SDS011;3254;47.372;8.512;2022-12-05T10:26:54;2.80;;;2.60;;
6442;SDS011;3254;47.372;8.512;2022-12-05T10:32:03;3.10;;;2.90;;
6442;SDS011;3254;47.372;8.512;2022-12-05T10:34:53;4.70;;;2.88;;
6442;SDS011;3254;47.372;8.512;2022-12-05T10:37:23;3.10;;;2.90;;
6442;SDS011;3254;47.372;8.512;2022-12-05T10:39:49;3.27;;;3.07;;
6442;SDS011;3254;47.372;8.512;2022-12-05T10:42:18;3.03;;;2.92;;
6442;SDS011;3254;47.372;8.512;2022-12-05T10:45:00;2.40;;;2.30;;
6442;SDS011;3254;47.372;8.512;2022-12-05T10:47:29;2.42;;;2.33;;
6442;SDS011;3254;47.372;8.512;2022-12-05T10:49:55;3.20;;;2.95;;
6442;SDS011;3254;47.372;8.512;2022-12-05T10:52:26;2.33;;;2.23;;
6442;SDS011;3254;47.372;8.512;2022-12-05T10:54:56;3.80;;;3.40;;
6442;SDS011;3254;47.372;8.512;2022-12-05T10:57:29;2.53;;;2.33;;
6442;SDS011;3254;47.372;8.512;2022-12-05T10:59:55;2.73;;;2.63;;
6442;SDS011;3254;47.372;8.512;2022-12-05T11:02:28;3.20;;;3.03;;
6442;SDS011;3254;47.372;8.512;2022-12-05T11:04:56;2.40;;;2.30;;
6442;SDS011;3254;47.372;8.512;2022-12-05T11:07:36;3.80;;;3.60;;
6442;SDS011;3254;47.372;8.512;2022-12-05T11:10:26;4.78;;;4.20;;
6442;SDS011;3254;47.372;8.512;2022-12-05T11:13:12;3.75;;;3.55;;
6442;SDS011;3254;47.372;8.512;2022-12-05T11:15:43;4.03;;;3.72;;
6442;SDS011;3254;47.372;8.512;2022-12-05T11:18:27;2.90;;;2.80;;
6442;SDS011;3254;47.372;8.512;2022-12-05T11:20:54;2.70;;;2.60;;
6442;SDS011;3254;47.372;8.512;2022-12-05T11:23:31;3.10;;;3.00;;
6442;SDS011;3254;47.372;8.512;2022-12-05T11:25:57;4.20;;;3.90;;
6442;SDS011;3254;47.372;8.512;2022-12-05T11:28:26;3.83;;;3.50;;
6442;SDS011;3254;47.372;8.512;2022-12-05T11:31:02;3.80;;;3.60;;
6442;SDS011;3254;47.372;8.512;2022-12-05T11:33:40;3.42;;;3.22;;
6442;SDS011;3254;47.372;8.512;2022-12-05T11:36:11;3.47;;;3.27;;
6442;SDS011;3254;47.372;8.512;2022-12-05T11:38:48;3.95;;;3.65;;
6442;SDS011;3254;47.372;8.512;2022-12-05T11:50:12;3.33;;;3.05;;
6442;SDS011;3254;47.372;8.512;2022-12-05T11:55:32;3.60;;;3.30;;
6442;SDS011;3254;47.372;8.512;2022-12-05T11:58:34;4.50;;;2.97;;
6442;SDS011;3254;47.372;8.512;2022-12-05T12:01:04;3.43;;;3.20;;
6442;SDS011;3254;47.372;8.512;2022-12-05T12:03:49;2.83;;;2.73;;
6442;SDS011;3254;47.372;8.512;2022-12-05T12:06:49;3.63;;;3.43;;
6442;SDS011;3254;47.372;8.512;2022-12-05T12:12:12;3.33;;;3.07;;
6442;SDS011;3254;47.372;8.512;2022-12-05T12:14:46;6.30;;;3.10;;
6442;SDS011;3254;47.372;8.512;2022-12-05T12:20:01;2.80;;;2.70;;
6442;SDS011;3254;47.372;8.512;2022-12-05T12:39:44;3.23;;;3.07;;
6442;SDS011;3254;47.372;8.512;2022-12-05T12:42:40;4.00;;;2.90;;
6442;SDS011;3254;47.372;8.512;2022-12-05T12:51:50;3.50;;;3.20;;
6442;SDS011;3254;47.372;8.512;2022-12-05T12:54:26;3.40;;;3.20;;
6442;SDS011;3254;47.372;8.512;2022-12-05T13:04:58;4.03;;;3.43;;
6442;SDS011;3254;47.372;8.512;2022-12-05T13:07:44;3.80;;;3.50;;
6442;SDS011;3254;47.372;8.512;2022-12-05T13:12:50;3.87;;;3.57;;
6442;SDS011;3254;47.372;8.512;2022-12-05T13:15:18;3.80;;;3.50;;
6442;SDS011;3254;47.372;8.512;2022-12-05T13:18:17;5.30;;;4.65;;
6442;SDS011;3254;47.372;8.512;2022-12-05T13:20:46;6.87;;;4.10;;
6442;SDS011;3254;47.372;8.512;2022-12-05T13:23:15;7.13;;;4.40;;
6442;SDS011;3254;47.372;8.512;2022-12-05T13:25:46;7.65;;;3.70;;
6442;SDS011;3254;47.372;8.512;2022-12-05T13:30:52;4.75;;;4.18;;
6442;SDS011;3254;47.372;8.512;2022-12-05T13:33:33;4.70;;;4.40;;
6442;SDS011;3254;47.372;8.512;2022-12-05T13:36:08;4.82;;;4.53;;
6442;SDS011;3254;47.372;8.512;2022-12-05T13:38:55;4.65;;;4.25;;
6442;SDS011;3254;47.372;8.512;2022-12-05T13:41:53;4.47;;;4.18;;
6442;SDS011;3254;47.372;8.512;2022-12-05T13:44:54;4.45;;;4.15;;
6442;SDS011;3254;47.372;8.512;2022-12-05T13:47:27;5.30;;;4.80;;
6442;SDS011;3254;47.372;8.512;2022-12-05T13:50:34;7.38;;;5.40;;
6442;SDS011;3254;47.372;8.512;2022-12-05T13:56:01;6.32;;;4.50;;
6442;SDS011;3254;47.372;8.512;2022-12-05T13:58:49;6.00;;;5.50;;
6442;SDS011;3254;47.372;8.512;2022-12-05T14:09:50;5.38;;;4.90;;
6442;SDS011;3254;47.372;8.512;2022-12-05T14:14:57;5.43;;;4.80;;
6442;SDS011;3254;47.372;8.512;2022-12-05T14:17:29;7.07;;;4.25;;
6442;SDS011;3254;47.372;8.512;2022-12-05T14:20:21;4.70;;;4.28;;
6442;SDS011;3254;47.372;8.512;2022-12-05T14:23:01;5.03;;;4.38;;
6442;SDS011;3254;47.372;8.512;2022-12-05T14:25:59;4.63;;;4.23;;
6442;SDS011;3254;47.372;8.512;2022-12-05T14:31:25;4.97;;;4.57;;
6442;SDS011;3254;47.372;8.512;2022-12-05T14:34:03;4.38;;;4.03;;
6442;SDS011;3254;47.372;8.512;2022-12-05T14:36:37;4.33;;;4.03;;
6442;SDS011;3254;47.372;8.512;2022-12-05T14:39:20;5.37;;;4.57;;
6442;SDS011;3254;47.372;8.512;2022-12-05T14:41:56;4.20;;;3.90;;
6442;SDS011;3254;47.372;8.512;2022-12-05T14:44:23;4.27;;;3.97;;
6442;SDS011;3254;47.372;8.512;2022-12-05T14:46:54;4.63;;;4.23;;
6442;SDS011;3254;47.372;8.512;2022-12-05T14:49:32;7.27;;;4.47;;
6442;SDS011;3254;47.372;8.512;2022-12-05T14:52:17;4.55;;;4.13;;
6442;SDS011;3254;47.372;8.512;2022-12-05T14:54:49;4.88;;;4.38;;
6442;SDS011;3254;47.372;8.512;2022-12-05T14:57:22;5.40;;;5.00;;
6442;SDS011;3254;47.372;8.512;2022-12-05T15:00:21;4.87;;;4.57;;
6442;SDS011;3254;47.372;8.512;2022-12-05T15:02:44;5.18;;;4.25;;
6442;SDS011;3254;47.372;8.512;2022-12-05T15:05:27;4.05;;;3.65;;
6442;SDS011;3254;47.372;8.512;2022-12-05T15:07:55;5.55;;;4.88;;
6442;SDS011;3254;47.372;8.512;2022-12-05T15:10:26;4.73;;;4.23;;
6442;SDS011;3254;47.372;8.512;2022-12-05T15:12:57;6.50;;;4.93;;
6442;SDS011;3254;47.372;8.512;2022-12-05T15:18:08;4.97;;;4.55;;
6442;SDS011;3254;47.372;8.512;2022-12-05T15:26:15;4.60;;;4.30;;
6442;SDS011;3254;47.372;8.512;2022-12-05T15:28:55;4.05;;;3.75;;
6442;SDS011;3254;47.372;8.512;2022-12-05T15:31:23;3.75;;;3.60;;
6442;SDS011;3254;47.372;8.512;2022-12-05T15:33:51;8.63;;;4.25;;
6442;SDS011;3254;47.372;8.512;2022-12-05T15:36:22;3.80;;;3.60;;
6442;SDS011;3254;47.372;8.512;2022-12-05T15:38:54;4.47;;;4.18;;
6442;SDS011;3254;47.372;8.512;2022-12-05T15:41:20;4.27;;;4.00;;
6442;SDS011;3254;47.372;8.512;2022-12-05T15:43:55;4.30;;;4.00;;
6442;SDS011;3254;47.372;8.512;2022-12-05T15:46:23;4.40;;;4.10;;
6442;SDS011;3254;47.372;8.512;2022-12-05T15:48:51;4.25;;;3.90;;
6442;SDS011;3254;47.372;8.512;2022-12-05T15:51:32;4.35;;;4.05;;
6442;SDS011;3254;47.372;8.512;2022-12-05T15:54:06;4.50;;;4.20;;
6442;SDS011;3254;47.372;8.512;2022-12-05T15:56:37;4.38;;;4.07;;
6442;SDS011;3254;47.372;8.512;2022-12-05T15:59:17;4.70;;;4.30;;
6442;SDS011;3254;47.372;8.512;2022-12-05T16:01:57;4.53;;;4.22;;
6442;SDS011;3254;47.372;8.512;2022-12-05T16:04:29;4.50;;;4.20;;
6442;SDS011;3254;47.372;8.512;2022-12-05T16:06:59;4.80;;;4.28;;
6442;SDS011;3254;47.372;8.512;2022-12-05T16:09:32;5.20;;;4.70;;
6442;SDS011;3254;47.372;8.512;2022-12-05T16:12:04;5.32;;;4.93;;
6442;SDS011;3254;47.372;8.512;2022-12-05T16:14:41;4.65;;;4.35;;
6442;SDS011;3254;47.372;8.512;2022-12-05T16:17:08;4.60;;;4.20;;
6442;SDS011;3254;47.372;8.512;2022-12-05T16:19:39;4.85;;;4.45;;
6442;SDS011;3254;47.372;8.512;2022-12-05T16:22:06;5.10;;;4.70;;
6442;SDS011;3254;47.372;8.512;2022-12-05T16:24:40;4.75;;;4.38;;
6442;SDS011;3254;47.372;8.512;2022-12-05T16:32:58;5.30;;;4.90;;
6442;SDS011;3254;47.372;8.512;2022-12-05T16:35:31;6.82;;;4.50;;
6442;SDS011;3254;47.372;8.512;2022-12-05T16:38:05;5.80;;;5.40;;
6442;SDS011;3254;47.372;8.512;2022-12-05T16:45:45;5.38;;;5.07;;
6442;SDS011;3254;47.372;8.512;2022-12-05T16:48:19;12.85;;;5.40;;
6442;SDS011;3254;47.372;8.512;2022-12-05T16:53:50;5.40;;;5.00;;
6442;SDS011;3254;47.372;8.512;2022-12-05T16:56:24;5.68;;;5.28;;
6442;SDS011;3254;47.372;8.512;2022-12-05T16:58:57;6.88;;;5.97;;
6442;SDS011;3254;47.372;8.512;2022-12-05T17:01:29;8.27;;;5.65;;
6442;SDS011;3254;47.372;8.512;2022-12-05T17:03:55;6.23;;;5.73;;
6442;SDS011;3254;47.372;8.512;2022-12-05T17:06:22;5.40;;;4.90;;
6442;SDS011;3254;47.372;8.512;2022-12-05T17:08:49;6.90;;;5.28;;
6442;SDS011;3254;47.372;8.512;2022-12-05T17:11:16;5.65;;;5.15;;
6442;SDS011;3254;47.372;8.512;2022-12-05T17:13:43;7.90;;;6.07;;
6442;SDS011;3254;47.372;8.512;2022-12-05T17:16:12;7.95;;;7.10;;
6442;SDS011;3254;47.372;8.512;2022-12-05T17:18:42;6.25;;;5.75;;
6442;SDS011;3254;47.372;8.512;2022-12-05T17:21:15;12.80;;;8.90;;
6442;SDS011;3254;47.372;8.512;2022-12-05T17:23:43;12.15;;;7.95;;
6442;SDS011;3254;47.372;8.512;2022-12-05T17:26:13;8.15;;;6.88;;
6442;SDS011;3254;47.372;8.512;2022-12-05T17:28:41;6.90;;;6.30;;
6442;SDS011;3254;47.372;8.512;2022-12-05T17:31:08;6.17;;;5.77;;
6442;SDS011;3254;47.372;8.512;2022-12-05T17:33:37;7.53;;;5.75;;
6442;SDS011;3254;47.372;8.512;2022-12-05T17:36:02;7.20;;;6.33;;
6442;SDS011;3254;47.372;8.512;2022-12-05T17:38:29;8.13;;;6.07;;
6442;SDS011;3254;47.372;8.512;2022-12-05T17:40:55;5.85;;;5.45;;
6442;SDS011;3254;47.372;8.512;2022-12-05T17:43:20;6.23;;;5.73;;
6442;SDS011;3254;47.372;8.512;2022-12-05T17:45:46;6.60;;;6.00;;
6442;SDS011;3254;47.372;8.512;2022-12-05T17:48:12;6.00;;;5.40;;
6442;SDS011;3254;47.372;8.512;2022-12-05T17:50:40;6.88;;;6.28;;
6442;SDS011;3254;47.372;8.512;2022-12-05T17:53:07;6.18;;;5.60;;
6442;SDS011;3254;47.372;8.512;2022-12-05T17:55:37;8.10;;;6.07;;